Time;durP1;ratioP1;P1;durP2;ratioP2;P2;SDS_P1;SDS_P2;PMS_P1;PMS_P2;Temp;Humidity;BMP_temperature;BMP_pressure;BME280_temperature;BME280_humidity;BME280_pressure;Samples;Min_cycle;Max_cycle;Signal;HPM_P1;HPM_P2
2022/11/15 00:01:47;;;;;;;;;7.00;7.00;;;;;14.39;70.92;99768.69;5029011;28;45336;-72
2022/11/15 00:04:14;;;;;;;;;7.67;7.00;;;;;14.60;70.61;99806.44;5019178;28;45455;-72
2022/11/15 00:06:39;;;;;;;;;7.33;7.00;;;;;14.59;70.80;99804.69;5024157;28;45531;-72
2022/11/15 00:09:05;;;;;;;;;9.00;9.00;;;;;14.58;71.69;99802.94;5024389;28;45644;-72
2022/11/15 00:11:30;;;;;;;;;7.00;7.00;;;;;14.58;70.99;99810.81;5020923;28;45439;-72
2022/11/15 00:13:57;;;;;;;;;7.00;7.00;;;;;14.58;71.08;99813.44;5019467;28;45595;-73
2022/11/15 00:16:23;;;;;;;;;7.33;6.67;;;;;14.54;70.16;99796.75;5021309;28;45319;-72
2022/11/15 00:18:50;;;;;;;;;5.67;5.67;;;;;14.55;70.56;99790.63;5021596;28;45513;-72
2022/11/15 00:21:17;;;;;;;;;6.33;5.00;;;;;14.59;70.28;99795.06;5021398;28;45481;-72
2022/11/15 00:23:43;;;;;;;;;7.00;7.00;;;;;14.61;71.15;99790.66;5024357;28;45541;-72
2022/11/15 00:26:14;;;;;;;;;6.00;6.00;;;;;14.60;71.03;99781.00;5017442;28;45502;-71
2022/11/15 00:28:41;;;;;;;;;6.00;4.67;;;;;14.58;69.91;99767.00;5020288;28;46067;-72
2022/11/15 00:31:10;;;;;;;;;5.33;5.33;;;;;14.62;69.99;99770.50;5024091;28;45428;-72
2022/11/15 00:33:35;;;;;;;;;5.00;4.00;;;;;14.58;69.82;99753.00;5022404;28;45406;-72
2022/11/15 00:36:08;;;;;;;;;5.00;4.00;;;;;14.61;68.70;99753.00;5019669;28;45495;-71
2022/11/15 00:38:37;;;;;;;;;5.00;5.00;;;;;14.63;69.70;99749.50;5020033;28;45689;-72
2022/11/15 00:41:04;;;;;;;;;4.00;4.00;;;;;14.69;69.33;99753.88;5021382;28;45470;-72
2022/11/15 00:43:30;;;;;;;;;4.00;4.00;;;;;14.76;68.50;99744.22;5015953;28;45518;-72
2022/11/15 00:45:55;;;;;;;;;5.33;5.00;;;;;14.80;68.71;99736.38;5018152;28;45937;-72
2022/11/15 00:48:21;;;;;;;;;5.00;4.00;;;;;14.82;68.76;99737.25;5024324;28;45923;-72
2022/11/15 00:50:49;;;;;;;;;5.67;5.33;;;;;14.79;69.46;99729.34;5020557;28;45559;-72
2022/11/15 00:53:15;;;;;;;;;5.00;4.00;;;;;14.79;69.35;99736.34;5020963;28;45446;-72
2022/11/15 00:55:41;;;;;;;;;5.67;5.00;;;;;14.81;68.89;99743.38;5025024;28;45481;-72
2022/11/15 00:58:07;;;;;;;;;6.67;5.00;;;;;14.76;68.69;99724.06;5027428;28;45504;-72
2022/11/15 01:00:33;;;;;;;;;3.00;3.00;;;;;14.80;69.70;99725.84;5019705;28;45746;-72
2022/11/15 01:03:01;;;;;;;;;3.33;3.33;;;;;14.78;69.89;99719.72;5021124;28;45310;-72
2022/11/15 01:05:28;;;;;;;;;5.00;4.33;;;;;14.77;69.43;99710.06;5022600;28;45384;-70
2022/11/15 01:07:55;;;;;;;;;4.67;4.00;;;;;14.71;69.41;99696.91;5024552;28;45371;-73
2022/11/15 01:10:22;;;;;;;;;4.00;4.00;;;;;14.70;69.22;99679.38;5019030;28;45536;-72
2022/11/15 01:12:48;;;;;;;;;4.00;4.00;;;;;14.75;69.32;99682.91;5024347;28;45576;-72
2022/11/15 01:15:13;;;;;;;;;3.00;3.00;;;;;14.75;68.91;99677.63;5016972;28;45368;-72
2022/11/15 01:17:39;;;;;;;;;3.67;3.67;;;;;14.78;68.79;99674.13;5020974;28;45412;-72
2022/11/15 01:20:05;;;;;;;;;4.00;4.00;;;;;14.79;68.96;99671.50;5016423;28;45517;-73
2022/11/15 01:22:30;;;;;;;;;4.00;3.67;;;;;14.86;68.74;99674.97;5028915;28;45639;-72
2022/11/15 01:24:56;;;;;;;;;2.67;2.67;;;;;14.91;68.71;99673.25;5013372;28;45500;-72
2022/11/15 01:27:22;;;;;;;;;4.33;4.00;;;;;14.95;68.50;99671.47;5023853;28;45534;-72
2022/11/15 01:29:47;;;;;;;;;4.00;3.00;;;;;14.97;68.71;99665.34;5025817;28;45855;-72
2022/11/15 01:32:13;;;;;;;;;4.00;4.00;;;;;14.98;67.63;99656.56;5019699;28;45388;-74
2022/11/15 01:34:38;;;;;;;;;4.33;4.33;;;;;14.97;67.75;99625.88;5022061;28;45407;-73
2022/11/15 01:37:04;;;;;;;;;2.33;2.33;;;;;15.07;67.42;99624.09;5019513;28;45976;-75
2022/11/15 01:39:29;;;;;;;;;4.00;3.00;;;;;15.10;67.27;99626.75;5021237;28;45616;-72
2022/11/15 01:41:55;;;;;;;;;3.00;3.00;;;;;15.14;65.80;99625.84;5021179;28;45264;-72
2022/11/15 01:44:51;;;;;;;;;3.00;3.00;;;;;15.11;67.36;99626.72;5026905;28;45462;-75
2022/11/15 01:47:30;;;;;;;;;3.00;3.00;;;;;15.09;67.09;99617.09;5022288;28;46249;-75
2022/11/15 01:50:03;;;;;;;;;3.00;2.67;;;;;15.09;67.16;99604.78;5023247;28;45940;-75
2022/11/15 01:52:32;;;;;;;;;4.00;4.00;;;;;15.18;66.63;99618.78;5028676;28;45466;-75
2022/11/15 01:55:03;;;;;;;;;4.00;4.00;;;;;15.21;66.06;99622.28;5022980;28;45677;-75
2022/11/15 01:57:30;;;;;;;;;5.33;5.00;;;;;15.27;65.14;99622.28;5024168;28;45509;-75
2022/11/15 01:59:57;;;;;;;;;5.00;4.33;;;;;15.29;65.14;99609.13;5023840;28;45558;-76
2022/11/15 02:02:22;;;;;;;;;3.00;3.00;;;;;15.40;64.18;99617.84;5023668;28;45509;-75
2022/11/15 02:04:48;;;;;;;;;5.00;5.00;;;;;15.40;64.02;99595.91;5019355;28;45345;-75
2022/11/15 02:07:17;;;;;;;;;3.00;3.00;;;;;15.49;63.36;99603.75;5031828;28;45545;-75
2022/11/15 02:09:43;;;;;;;;;4.33;4.00;;;;;15.53;63.35;99602.84;5023429;28;45459;-76
2022/11/15 02:12:10;;;;;;;;;5.00;4.00;;;;;15.65;62.35;99602.78;5027335;28;45803;-76
2022/11/15 02:14:40;;;;;;;;;3.00;3.00;;;;;15.68;61.41;99586.97;5028256;28;45304;-75
2022/11/15 02:17:24;;;;;;;;;3.00;3.00;;;;;15.74;62.17;99579.94;5030869;28;46581;-73
2022/11/15 02:20:20;;;;;;;;;3.00;3.00;;;;;15.77;60.76;99566.78;5027536;28;45538;-75
2022/11/15 02:23:13;;;;;;;;;2.00;2.00;;;;;15.81;60.13;99552.69;5023543;28;45460;-75
2022/11/15 02:26:07;;;;;;;;;1.00;1.00;;;;;15.85;59.90;99543.88;5022659;28;45554;-74
2022/11/15 02:28:41;;;;;;;;;1.67;1.67;;;;;15.94;58.78;99528.03;5017941;28;46250;-75
2022/11/15 02:31:28;;;;;;;;;1.00;1.00;;;;;15.96;58.30;99515.72;5017460;28;45391;-74
2022/11/15 02:34:05;;;;;;;;;2.00;2.00;;;;;16.01;58.58;99505.13;5017919;28;45538;-75
2022/11/15 02:36:44;;;;;;;;;1.00;1.00;;;;;16.03;57.78;99513.88;5017687;28;45463;-75
2022/11/15 02:39:41;;;;;;;;;1.00;1.00;;;;;16.06;57.67;99508.59;5016931;28;45392;-75
2022/11/15 02:45:39;;;;;;;;;1.00;1.00;;;;;16.10;57.29;99491.88;5002171;28;45578;-73
2022/11/15 02:48:07;;;;;;;;;2.00;2.00;;;;;16.11;56.14;99485.72;5017115;28;45475;-75
2022/11/15 02:50:33;;;;;;;;;1.00;1.00;;;;;16.15;55.22;99487.41;5016584;28;46293;-75
2022/11/15 02:52:59;;;;;;;;;2.00;0.33;;;;;16.17;55.01;99468.97;5020264;28;45475;-75
2022/11/15 02:55:30;;;;;;;;;1.33;0.00;;;;;16.27;54.72;99468.88;5016915;28;45387;-74
2022/11/15 02:57:56;;;;;;;;;1.00;1.00;;;;;16.32;54.31;99457.41;5017093;28;45523;-76
2022/11/15 03:00:22;;;;;;;;;1.00;1.00;;;;;16.33;54.38;99452.09;4998853;28;45596;-74
2022/11/15 03:03:25;;;;;;;;;1.00;1.00;;;;;16.34;54.93;99451.22;5016781;28;45372;-75
2022/11/15 03:06:04;;;;;;;;;1.50;1.50;;;;;16.33;55.30;99441.56;5002355;28;45592;-74
2022/11/15 03:08:40;;;;;;;;;1.33;1.33;;;;;16.32;54.68;99437.19;5017087;28;45693;-73
2022/11/15 03:11:13;;;;;;;;;1.00;1.00;;;;;16.32;54.86;99447.72;5018261;28;45293;-75
2022/11/15 03:13:58;;;;;;;;;1.00;1.00;;;;;16.33;55.56;99441.56;5014951;28;46020;-75
2022/11/15 03:16:47;;;;;;;;;1.00;1.00;;;;;16.26;55.18;99432.84;5016013;28;45427;-74
2022/11/15 03:19:39;;;;;;;;;0.00;0.00;;;;;16.32;55.37;99438.97;5002028;28;45750;-75
2022/11/15 03:22:08;;;;;;;;;0.00;0.00;;;;;16.30;55.59;99452.16;5002721;28;46391;-74
2022/11/15 03:24:37;;;;;;;;;1.00;1.00;;;;;16.28;55.59;99438.97;5029383;28;46265;-74
2022/11/15 03:27:06;;;;;;;;;2.00;1.00;;;;;16.32;55.70;99449.50;5030594;28;45558;-75
2022/11/15 03:29:35;;;;;;;;;1.00;0.67;;;;;16.30;55.81;99445.09;5029683;28;45789;-75
2022/11/15 03:32:27;;;;;;;;;1.33;1.33;;;;;16.27;55.26;99431.97;5025019;28;46215;-72
2022/11/15 03:35:07;;;;;;;;;2.00;1.00;;;;;16.36;55.50;99448.56;5016521;28;45538;-75
2022/11/15 03:37:48;;;;;;;;;0.67;0.67;;;;;16.38;54.76;99431.84;5015898;28;45392;-74
2022/11/15 03:40:15;;;;;;;;;1.00;1.00;;;;;16.40;54.81;99432.69;5021430;28;45523;-75
2022/11/15 03:43:01;;;;;;;;;1.00;1.00;;;;;16.42;53.80;99424.78;4998723;28;47011;-75
2022/11/15 03:45:32;;;;;;;;;1.00;0.33;;;;;16.48;54.27;99438.75;5014460;28;45477;-75
2022/11/15 03:48:18;;;;;;;;;1.00;1.00;;;;;16.47;54.05;99439.66;5017843;28;45329;-75
2022/11/15 03:50:45;;;;;;;;;0.00;0.00;;;;;16.43;54.00;99437.06;5017278;28;45298;-75
2022/11/15 03:53:12;;;;;;;;;1.00;1.00;;;;;16.50;54.00;99439.59;5015801;28;45660;-74
2022/11/15 03:55:37;;;;;;;;;2.00;1.00;;;;;16.49;53.72;99435.25;5016279;28;45218;-75
2022/11/15 03:58:03;;;;;;;;;1.00;0.00;;;;;16.54;53.88;99435.19;5016954;28;45577;-74
2022/11/15 04:00:29;;;;;;;;;1.00;1.00;;;;;16.49;53.91;99405.34;5022879;28;45873;-75
2022/11/15 04:02:55;;;;;;;;;1.00;1.00;;;;;16.45;52.30;99401.91;5011726;28;47922;-75
2022/11/15 04:05:20;;;;;;;;;0.00;0.00;;;;;16.53;52.75;99408.81;4999146;28;45361;-76
2022/11/15 04:07:46;;;;;;;;;2.00;2.00;;;;;16.62;52.86;99419.25;5028955;28;45385;-76
2022/11/15 04:10:14;;;;;;;;;2.00;1.67;;;;;16.57;52.64;99410.53;5023348;28;45471;-75
2022/11/15 04:12:47;;;;;;;;;1.67;1.00;;;;;16.56;52.86;99411.44;5028832;28;48037;-76
2022/11/15 04:15:19;;;;;;;;;1.00;1.00;;;;;16.60;53.10;99406.09;5024042;28;45486;-75
2022/11/15 04:17:46;;;;;;;;;2.00;1.67;;;;;16.68;52.94;99420.03;5034547;28;45476;-76
2022/11/15 04:26:00;;;;;;;;;1.00;1.00;;;;;16.70;53.53;99413.00;5024635;28;45445;-76
2022/11/15 04:28:26;;;;;;;;;1.67;1.67;;;;;16.77;53.64;99424.34;5022896;28;45518;-75
2022/11/15 04:30:52;;;;;;;;;2.00;1.33;;;;;16.77;53.33;99413.81;5024529;28;45574;-76
2022/11/15 04:33:18;;;;;;;;;1.33;1.33;;;;;16.84;53.64;99422.53;5035487;28;46103;-75
2022/11/15 04:37:11;;;;;;;;;1.67;1.67;;;;;16.82;53.74;99422.53;5023182;28;45403;-75
2022/11/15 04:38:29;;;;;;;;;1.67;1.67;;;;;16.79;53.72;99409.38;5021065;28;45314;-75
2022/11/15 04:40:54;;;;;;;;;1.67;1.00;;;;;16.75;54.00;99405.03;5027851;28;45450;-76
2022/11/15 04:43:20;;;;;;;;;2.00;2.00;;;;;16.81;53.74;99420.81;5026510;28;45494;-75
2022/11/15 04:45:45;;;;;;;;;1.33;1.00;;;;;16.77;54.01;99413.81;5023288;28;45478;-76
2022/11/15 04:48:11;;;;;;;;;1.67;1.00;;;;;16.83;53.99;99426.03;5024136;28;45467;-75
2022/11/15 04:50:36;;;;;;;;;1.00;1.00;;;;;16.86;54.20;99428.66;5027428;28;45458;-76
2022/11/15 04:53:02;;;;;;;;;2.00;1.00;;;;;16.84;54.03;99425.16;5027515;28;45701;-76
2022/11/15 04:55:27;;;;;;;;;2.33;2.33;;;;;16.91;53.98;99440.03;5025413;28;45454;-75
2022/11/15 04:58:00;;;;;;;;;4.00;2.33;;;;;16.89;53.57;99432.13;5017040;28;45414;-76
2022/11/15 05:00:26;;;;;;;;;2.00;1.00;;;;;16.95;53.67;99441.72;5010564;28;45316;-75
2022/11/15 05:05:36;;;;;;;;;1.00;1.00;;;;;17.01;53.22;99443.38;5027812;28;45510;-75
2022/11/15 05:08:02;;;;;;;;;1.00;1.00;;;;;16.92;52.89;99431.19;5029263;28;45437;-75
2022/11/15 05:10:28;;;;;;;;;0.00;0.00;;;;;17.01;52.99;99448.66;5023977;28;45403;-75
2022/11/15 05:12:53;;;;;;;;;1.00;1.00;;;;;16.97;51.31;99417.94;5000178;28;46153;-75
2022/11/15 05:15:19;;;;;;;;;1.00;1.00;;;;;17.02;52.32;99421.41;5003322;28;45470;-75
2022/11/15 05:17:44;;;;;;;;;2.33;2.00;;;;;17.04;52.67;99427.53;5019179;28;45543;-75
2022/11/15 05:20:11;;;;;;;;;36.25;29.50;;;;;16.94;52.69;99418.00;5017361;28;45461;-74
2022/11/15 05:22:36;;;;;;;;;6.67;5.67;;;;;16.96;52.81;99409.16;5022302;28;46931;-73
2022/11/15 05:25:03;;;;;;;;;13.67;12.67;;;;;16.87;52.66;99383.78;5027186;28;45630;-75
2022/11/15 05:27:28;;;;;;;;;6.67;5.67;;;;;16.95;52.12;99385.44;5027262;28;45518;-75
2022/11/15 05:29:54;;;;;;;;;1.00;0.67;;;;;17.10;50.30;99393.13;5031303;28;45235;-75
2022/11/15 05:32:20;;;;;;;;;5.67;5.33;;;;;17.12;50.61;99390.47;5025776;28;46105;-75
2022/11/15 05:34:46;;;;;;;;;3.33;2.33;;;;;17.10;50.72;99391.34;5020134;28;45619;-75
2022/11/15 05:37:13;;;;;;;;;6.67;5.33;;;;;17.04;50.63;99374.75;5022713;28;45439;-76
2022/11/15 05:39:38;;;;;;;;;5.00;5.00;;;;;17.13;51.04;99387.81;5025209;28;45462;-75
2022/11/15 05:42:15;;;;;;;;;1.67;1.67;;;;;17.07;50.90;99377.34;5028637;28;45435;-76
2022/11/15 05:44:46;;;;;;;;;1.33;1.33;;;;;17.08;51.14;99381.72;5026892;28;45599;-75
2022/11/15 05:47:26;;;;;;;;;1.67;1.67;;;;;17.10;50.53;99367.59;5031307;28;45418;-74
2022/11/15 05:49:53;;;;;;;;;6.00;4.67;;;;;17.07;50.70;99361.53;5019784;28;45485;-75
2022/11/15 05:52:24;;;;;;;;;4.00;3.00;;;;;17.13;50.73;99361.44;5010951;28;45298;-75
2022/11/15 05:54:50;;;;;;;;;4.00;4.00;;;;;17.20;50.44;99359.56;5026519;28;45371;-74
2022/11/15 05:57:16;;;;;;;;;4.00;3.00;;;;;17.06;50.68;99346.56;5026916;28;45315;-76
2022/11/15 05:59:43;;;;;;;;;4.33;3.67;;;;;17.13;50.75;99364.06;5023996;28;45532;-75
2022/11/15 06:02:09;;;;;;;;;2.00;1.33;;;;;17.10;50.70;99348.28;5025927;28;46210;-71
2022/11/15 06:04:35;;;;;;;;;1.00;1.00;;;;;17.13;50.16;99350.88;5023810;28;45476;-75
2022/11/15 06:07:01;;;;;;;;;2.00;2.00;;;;;17.14;50.46;99355.25;5031469;28;45341;-75
2022/11/15 06:09:27;;;;;;;;;1.00;0.33;;;;;17.00;50.67;99347.53;5023160;28;45457;-75
2022/11/15 06:11:52;;;;;;;;;1.67;1.00;;;;;16.96;50.51;99334.44;5027804;28;46081;-76
2022/11/15 06:14:18;;;;;;;;;2.00;1.00;;;;;17.06;50.72;99354.50;5006192;28;45379;-75
2022/11/15 06:16:43;;;;;;;;;1.00;1.00;;;;;17.05;50.92;99350.09;5020104;28;45499;-76
2022/11/15 06:19:09;;;;;;;;;1.00;1.00;;;;;17.06;50.33;99367.69;5024507;28;45496;-75
2022/11/15 06:21:35;;;;;;;;;1.00;1.00;;;;;17.12;50.48;99379.91;5028284;28;45777;-74
2022/11/15 06:24:01;;;;;;;;;2.33;1.67;;;;;17.10;50.55;99385.22;5019385;28;45333;-76
2022/11/15 06:26:26;;;;;;;;;3.00;3.00;;;;;17.06;50.34;99396.72;5019384;28;45447;-75
2022/11/15 06:28:52;;;;;;;;;1.00;1.00;;;;;17.02;50.40;99395.00;5017918;28;45555;-75
2022/11/15 06:31:18;;;;;;;;;2.67;1.33;;;;;17.08;50.65;99398.41;5026360;28;45571;-75
2022/11/15 06:33:43;;;;;;;;;2.00;2.00;;;;;17.08;50.57;99385.22;5020852;28;45556;-76
2022/11/15 06:36:16;;;;;;;;;4.00;3.00;;;;;17.10;50.69;99382.56;5021354;28;45396;-76
2022/11/15 06:38:42;;;;;;;;;1.33;1.33;;;;;17.03;50.83;99378.28;5039447;28;45265;-75
2022/11/15 06:41:10;;;;;;;;;3.33;3.33;;;;;17.12;50.89;99386.06;5038888;28;46140;-75
2022/11/15 06:43:37;;;;;;;;;1.33;1.00;;;;;17.12;51.03;99377.28;5039229;28;45490;-75
2022/11/15 06:46:04;;;;;;;;;2.00;2.00;;;;;17.18;50.91;99372.75;5037707;28;45560;-76
2022/11/15 06:48:31;;;;;;;;;2.33;2.00;;;;;17.18;51.16;99371.91;5039190;28;45305;-75
2022/11/15 06:50:59;;;;;;;;;2.33;1.67;;;;;17.09;51.36;99365.00;5037691;28;45411;-75
2022/11/15 06:53:25;;;;;;;;;2.00;1.00;;;;;17.11;51.21;99350.03;5038774;28;45474;-75
2022/11/15 06:55:51;;;;;;;;;1.00;1.00;;;;;17.13;51.10;99349.97;5039175;28;45531;-76
2022/11/15 06:58:17;;;;;;;;;1.00;1.00;;;;;17.14;51.31;99351.72;5039361;28;45494;-75
2022/11/15 07:00:43;;;;;;;;;2.00;1.00;;;;;17.05;51.14;99339.53;5037399;28;46344;-73
2022/11/15 07:03:09;;;;;;;;;0.67;0.00;;;;;17.05;50.82;99339.53;5039305;28;45518;-73
2022/11/15 07:05:35;;;;;;;;;2.00;2.00;;;;;17.10;50.53;99340.34;5039355;28;45443;-76
2022/11/15 07:08:00;;;;;;;;;2.00;2.00;;;;;17.13;50.41;99357.91;5039149;28;45236;-75
2022/11/15 07:10:27;;;;;;;;;1.00;1.00;;;;;17.05;50.63;99345.72;5038686;28;46080;-75
2022/11/15 07:12:54;;;;;;;;;1.00;1.00;;;;;17.12;50.56;99340.34;5037838;28;45435;-74
2022/11/15 07:15:25;;;;;;;;;2.00;1.00;;;;;17.13;50.31;99348.25;5018124;28;45655;-72
2022/11/15 07:17:51;;;;;;;;;1.00;1.00;;;;;17.08;50.76;99356.19;5032417;28;45362;-73
2022/11/15 07:20:17;;;;;;;;;3.00;2.33;;;;;17.08;50.67;99371.16;5028188;28;45510;-73
2022/11/15 07:22:47;;;;;;;;;2.00;1.00;;;;;17.15;50.93;99383.38;5038008;28;45582;-74
2022/11/15 07:25:13;;;;;;;;;1.00;1.00;;;;;17.04;50.87;99365.06;5044399;28;45436;-74
2022/11/15 07:27:38;;;;;;;;;3.00;2.67;;;;;17.12;50.84;99366.72;5048331;28;45542;-74
2022/11/15 07:30:04;;;;;;;;;2.33;2.33;;;;;17.12;51.08;99364.94;5043712;28;46101;-74
2022/11/15 07:32:30;;;;;;;;;3.00;3.00;;;;;17.19;50.91;99373.63;5037759;28;45427;-72
2022/11/15 07:34:55;;;;;;;;;2.33;2.00;;;;;17.19;51.14;99353.41;5022619;28;45396;-73
2022/11/15 07:37:21;;;;;;;;;3.33;2.67;;;;;17.14;51.15;99344.69;5019743;28;45391;-76
2022/11/15 07:39:46;;;;;;;;;2.00;2.00;;;;;17.21;50.19;99361.28;5019398;28;45489;-76
2022/11/15 07:44:56;;;;;;;;;1.00;1.00;;;;;17.33;49.30;99376.94;5018656;28;45530;-74
2022/11/15 07:47:22;;;;;;;;;2.00;2.00;;;;;17.39;49.22;99354.81;5024144;28;45310;-74
2022/11/15 07:49:47;;;;;;;;;1.33;1.00;;;;;17.35;49.28;99348.75;5037609;28;45409;-75
2022/11/15 07:52:13;;;;;;;;;2.00;1.67;;;;;17.47;48.68;99377.56;5022650;28;45301;-75
2022/11/15 07:54:39;;;;;;;;;1.00;1.00;;;;;17.47;48.68;99364.38;5017353;28;45873;-75
2022/11/15 07:57:06;;;;;;;;;1.00;1.00;;;;;17.54;48.81;99377.47;5017912;28;45870;-74
2022/11/15 07:59:32;;;;;;;;;1.33;1.33;;;;;17.65;48.33;99386.09;5026341;28;45411;-74
2022/11/15 08:01:58;;;;;;;;;1.00;1.00;;;;;17.83;48.60;99395.47;5049583;28;45641;-74
2022/11/15 08:04:24;;;;;;;;;0.67;0.67;;;;;17.97;48.45;99396.09;5024822;28;45147;-74
2022/11/15 08:06:49;;;;;;;;;0.00;0.00;;;;;18.11;47.61;99389.69;5029269;28;45559;-76
2022/11/15 08:09:15;;;;;;;;;0.00;0.00;;;;;18.21;47.19;99364.81;5041221;28;45451;-75
2022/11/15 08:11:40;;;;;;;;;0.00;0.00;;;;;18.35;47.43;99388.34;5048203;28;45314;-76
2022/11/15 08:14:06;;;;;;;;;1.00;0.67;;;;;18.42;47.40;99382.88;5021501;28;45524;-75
2022/11/15 08:16:32;;;;;;;;;0.67;0.67;;;;;18.49;46.83;99384.47;5047646;28;45340;-75
2022/11/15 08:18:57;;;;;;;;;0.67;0.67;;;;;18.56;47.30;99392.28;5047827;28;46024;-76
2022/11/15 08:21:23;;;;;;;;;0.67;0.67;;;;;18.71;47.14;99405.19;5038948;28;45559;-76
2022/11/15 08:23:49;;;;;;;;;1.00;0.33;;;;;18.76;47.63;99390.09;5036941;28;45308;-77
2022/11/15 08:26:14;;;;;;;;;1.00;1.00;;;;;18.87;47.05;99416.34;5044301;28;45722;-77
2022/11/15 08:28:40;;;;;;;;;1.67;1.67;;;;;18.84;46.96;99419.03;5041486;28;45918;-76
2022/11/15 08:31:06;;;;;;;;;1.00;1.00;;;;;18.76;46.91;99418.31;5023021;28;45495;-76
2022/11/15 08:33:32;;;;;;;;;1.00;1.00;;;;;18.73;47.02;99423.69;5037096;28;45348;-76
2022/11/15 08:36:01;;;;;;;;;0.67;0.67;;;;;18.73;46.78;99413.09;5037972;28;45532;-76
2022/11/15 08:38:30;;;;;;;;;1.67;1.67;;;;;18.72;46.90;99411.34;5041732;28;46133;-77
2022/11/15 08:41:05;;;;;;;;;1.00;1.00;;;;;18.70;46.74;99400.78;5047554;28;45491;-76
2022/11/15 08:43:32;;;;;;;;;0.67;0.67;;;;;18.80;46.95;99399.75;5044287;28;45605;-75
2022/11/15 08:45:58;;;;;;;;;0.00;0.00;;;;;18.85;46.66;99391.69;5043915;28;45553;-76
2022/11/15 08:48:24;;;;;;;;;0.33;0.00;;;;;18.91;46.57;99383.63;5041378;28;46062;-75
2022/11/15 08:50:54;;;;;;;;;0.67;0.67;;;;;18.95;46.88;99376.47;5036105;28;45876;-75
2022/11/15 08:53:20;;;;;;;;;1.00;1.00;;;;;19.02;45.79;99362.19;5016677;28;45348;-75
2022/11/15 08:55:45;;;;;;;;;0.00;0.00;;;;;18.97;46.31;99366.72;5016792;28;45467;-75
2022/11/15 08:58:11;;;;;;;;;0.00;0.00;;;;;19.03;45.80;99367.44;5016638;28;45765;-75
2022/11/15 09:00:36;;;;;;;;;1.00;0.00;;;;;19.15;46.17;99361.00;5041884;28;45807;-77
2022/11/15 09:03:06;;;;;;;;;0.00;0.00;;;;;19.30;46.11;99356.22;5033167;28;45398;-76
2022/11/15 09:05:35;;;;;;;;;0.00;0.00;;;;;19.77;45.49;99357.69;5016245;28;45514;-75
2022/11/15 09:08:00;;;;;;;;;0.67;0.67;;;;;20.71;43.10;99325.88;5015714;28;46175;-76
2022/11/15 09:10:26;;;;;;;;;0.00;0.00;;;;;21.35;41.96;99357.44;5015903;28;45370;-76
2022/11/15 09:12:52;;;;;;;;;0.00;0.00;;;;;21.62;40.68;99326.44;5015925;28;45417;-76
2022/11/15 09:15:17;;;;;;;;;0.00;0.00;;;;;21.54;40.80;99341.78;5016221;28;45349;-75
2022/11/15 09:17:43;;;;;;;;;0.00;0.00;;;;;21.34;40.82;99365.47;5029609;28;46167;-75
2022/11/15 09:20:09;;;;;;;;;0.00;0.00;;;;;21.20;40.38;99361.47;5018037;28;45528;-76
2022/11/15 09:22:36;;;;;;;;;0.00;0.00;;;;;21.02;41.61;99327.53;5016366;28;45454;-76
2022/11/15 09:25:02;;;;;;;;;0.00;0.00;;;;;20.78;40.98;99369.88;5029560;28;45582;-76
2022/11/15 09:27:29;;;;;;;;;0.00;0.00;;;;;20.55;41.29;99367.00;5015608;28;45495;-75
2022/11/15 09:29:55;;;;;;;;;0.00;0.00;;;;;20.55;41.80;99381.16;5016483;28;45758;-75
2022/11/15 09:32:22;;;;;;;;;0.00;0.00;;;;;20.55;42.26;99388.22;5035745;28;45461;-75
2022/11/15 09:34:48;;;;;;;;;0.00;0.00;;;;;20.42;41.88;99375.34;5016858;28;45415;-76
2022/11/15 09:37:13;;;;;;;;;2.00;2.00;;;;;20.22;42.52;99389.16;5016117;28;46312;-75
2022/11/15 09:39:39;;;;;;;;;1.00;1.00;;;;;20.17;42.68;99399.00;5016309;28;45487;-76
2022/11/15 09:42:16;;;;;;;;;1.00;1.00;;;;;20.04;43.47;99398.50;5015654;28;45448;-75
2022/11/15 09:45:04;;;;;;;;;0.67;0.00;;;;;19.88;43.79;99412.22;5015469;28;45321;-75
2022/11/15 09:47:49;;;;;;;;;1.00;1.00;;;;;19.75;44.78;99416.94;5023576;28;46202;-74
2022/11/15 09:50:31;;;;;;;;;0.00;0.00;;;;;19.72;45.11;99430.28;5019818;28;45672;-74
2022/11/15 09:52:57;;;;;;;;;1.67;1.67;;;;;19.71;46.83;99447.03;5015908;28;45444;-75
2022/11/15 09:55:36;;;;;;;;;1.00;1.00;;;;;19.50;47.47;99440.47;4998491;28;45405;-75
2022/11/15 09:58:43;;;;;;;;;1.00;1.00;;;;;19.37;48.38;99438.13;5027403;28;45462;-75
2022/11/15 10:01:34;;;;;;;;;0.00;0.00;;;;;19.21;49.21;99424.38;5029736;28;45446;-77
2022/11/15 10:04:00;;;;;;;;;1.50;1.50;;;;;19.08;51.10;99423.81;5014934;28;45518;-77
2022/11/15 10:06:26;;;;;;;;;0.00;0.00;;;;;19.08;50.90;99413.22;5030084;28;45715;-77
2022/11/15 10:09:03;;;;;;;;;2.67;2.67;;;;;19.13;50.90;99402.53;5012672;28;46848;-74
2022/11/15 10:11:32;;;;;;;;;1.67;0.67;;;;;19.12;50.14;99406.09;5034288;28;45498;-76
2022/11/15 10:14:04;;;;;;;;;5.00;4.00;;;;;19.10;51.13;99396.41;5018853;28;45284;-76
2022/11/15 10:17:15;;;;;;;;;4.00;2.33;;;;;19.19;51.14;99412.97;5002922;28;45324;-78
2022/11/15 10:20:12;;;;;;;;;1.33;1.33;;;;;19.31;50.16;99408.28;5034981;28;46150;-77
2022/11/15 10:22:52;;;;;;;;;1.00;1.00;;;;;19.35;49.26;99388.78;5035896;28;45335;-77
2022/11/15 10:25:19;;;;;;;;;2.33;2.00;;;;;19.34;49.16;99372.03;5037622;28;45414;-75
2022/11/15 10:27:52;;;;;;;;;0.00;0.00;;;;;19.35;48.57;99376.41;5039552;28;45603;-85
2022/11/15 10:30:18;;;;;;;;;2.67;2.00;;;;;19.28;48.27;99375.69;5032976;28;45895;-84
2022/11/15 10:32:46;;;;;;;;;1.00;1.00;;;;;19.16;47.92;99364.50;5018823;28;45513;-76
2022/11/15 10:35:24;;;;;;;;;0.00;0.00;;;;;19.11;48.06;99374.34;5018978;28;45479;-76
2022/11/15 10:37:50;;;;;;;;;0.00;0.00;;;;;19.13;48.05;99399.88;5032263;28;45506;-77
2022/11/15 10:40:22;;;;;;;;;0.33;0.00;;;;;19.14;48.59;99413.97;5037445;28;45786;-79
2022/11/15 10:43:03;;;;;;;;;1.00;1.00;;;;;19.16;48.26;99407.75;5038448;28;45549;-77
2022/11/15 10:45:31;;;;;;;;;1.00;0.00;;;;;19.20;48.57;99390.88;5026153;28;45529;-77
2022/11/15 10:48:12;;;;;;;;;1.00;1.00;;;;;19.31;48.41;99400.34;5019731;28;45411;-77
2022/11/15 10:50:40;;;;;;;;;1.00;1.00;;;;;19.38;48.89;99386.06;5031798;28;45290;-77
2022/11/15 10:53:21;;;;;;;;;0.00;0.00;;;;;19.43;49.41;99394.75;5017177;28;45509;-77
2022/11/15 10:55:49;;;;;;;;;1.00;1.00;;;;;19.46;50.02;99389.38;5018455;28;45686;-77
2022/11/15 10:58:37;;;;;;;;;2.33;2.00;;;;;19.51;49.70;99402.50;5017953;28;45281;-75
2022/11/15 11:01:14;;;;;;;;;1.00;1.00;;;;;19.51;50.53;99398.06;5016893;28;46572;-85
2022/11/15 11:03:41;;;;;;;;;1.00;1.00;;;;;19.57;50.02;99405.88;5018052;28;45494;-75
2022/11/15 11:06:17;;;;;;;;;3.00;2.33;;;;;19.66;48.96;99392.41;5018018;28;45553;-74
2022/11/15 11:09:01;;;;;;;;;1.67;1.33;;;;;19.78;49.15;99391.25;5018437;28;45530;-73
2022/11/15 11:11:48;;;;;;;;;0.00;0.00;;;;;19.93;48.03;99389.09;5033165;28;46476;-78
2022/11/15 11:14:20;;;;;;;;;1.00;0.67;;;;;20.01;47.80;99374.69;5023422;28;45312;-76
2022/11/15 11:17:02;;;;;;;;;0.67;0.67;;;;;20.15;47.95;99395.53;5028100;28;45416;-73
2022/11/15 11:20:01;;;;;;;;;2.00;2.00;;;;;20.31;47.74;99403.06;5018087;28;45490;-76
2022/11/15 11:22:46;;;;;;;;;0.00;0.00;;;;;20.32;48.28;99408.34;5028716;28;45285;-76
2022/11/15 11:25:24;;;;;;;;;0.00;0.00;;;;;20.23;48.22;99412.13;5004687;28;45560;-80
2022/11/15 11:28:11;;;;;;;;;0.00;0.00;;;;;20.03;49.10;99406.47;5017937;28;45736;-74
2022/11/15 11:30:45;;;;;;;;;0.00;0.00;;;;;19.85;49.36;99414.00;5011399;28;45844;-73
2022/11/15 11:33:21;;;;;;;;;0.00;0.00;;;;;19.66;50.01;99412.72;5020268;28;45425;-73
2022/11/15 11:35:47;;;;;;;;;0.00;0.00;;;;;19.44;50.25;99407.97;5017673;28;45853;-76
2022/11/15 11:38:39;;;;;;;;;2.00;1.33;;;;;19.23;50.94;99397.88;5026602;28;45455;-78
2022/11/15 11:41:27;;;;;;;;;0.00;0.00;;;;;19.03;52.22;99395.69;5036413;28;45633;-77
2022/11/15 11:44:25;;;;;;;;;1.00;1.00;;;;;18.84;54.13;99389.94;5029331;28;46102;-73
2022/11/15 11:47:10;;;;;;;;;0.67;0.67;;;;;18.69;54.43;99392.00;5017777;28;45384;-76
2022/11/15 11:50:17;;;;;;;;;1.33;0.67;;;;;18.49;56.30;99373.91;5028578;28;45609;-72
2022/11/15 11:53:03;;;;;;;;;2.33;2.33;;;;;18.45;56.71;99351.06;5020075;28;45233;-72
2022/11/15 11:55:47;;;;;;;;;4.00;2.67;;;;;18.32;58.77;99346.06;5028753;28;45426;-74
2022/11/15 11:58:22;;;;;;;;;1.00;0.67;;;;;18.37;60.27;99345.09;5031966;28;45299;-73
2022/11/15 12:00:56;;;;;;;;;1.67;1.67;;;;;18.55;59.78;99345.59;5013961;28;45581;-72
2022/11/15 12:03:24;;;;;;;;;1.00;1.00;;;;;18.63;58.95;99325.13;5016810;28;45344;-73
2022/11/15 12:05:54;;;;;;;;;2.33;2.00;;;;;18.67;57.98;99308.28;5029207;28;45490;-72